createdAt,value
2023-04-08T00:00:10.923Z,101172.13
2023-04-08T00:02:41.911Z,101177.47
2023-04-08T00:05:10.830Z,101176.34
2023-04-08T00:07:40.221Z,101178.03
2023-04-08T00:10:10.350Z,101182.81
2023-04-08T00:12:38.790Z,101176.03
2023-04-08T00:15:09.645Z,101185.03
2023-04-08T00:17:38.231Z,101179.41
2023-04-08T00:20:07.907Z,101182.09
2023-04-08T00:22:37.729Z,101174.19
2023-04-08T00:25:07.138Z,101169.63
2023-04-08T00:27:35.566Z,101173.81
2023-04-08T00:30:04.045Z,101180.41
2023-04-08T00:32:34.165Z,101175.63
2023-04-08T00:35:02.728Z,101177.84
2023-04-08T00:37:31.562Z,101174.13
2023-04-08T00:39:59.986Z,101178.63
2023-04-08T00:42:30.928Z,101188.84
2023-04-08T00:44:59.615Z,101179.53
2023-04-08T00:47:28.171Z,101182.19
2023-04-08T00:49:58.078Z,101175.03
2023-04-08T00:52:26.510Z,101165.75
2023-04-08T00:54:56.862Z,101166.50
2023-04-08T00:57:25.418Z,101172.50
2023-04-08T00:59:53.942Z,101176.34
2023-04-08T01:02:28.558Z,101169.22
2023-04-08T01:05:03.766Z,101165.03
2023-04-08T01:07:34.866Z,101133.22
2023-04-08T01:10:07.333Z,101146.56
2023-04-08T01:12:41.914Z,101172.38
2023-04-08T01:15:13.550Z,101171.53
2023-04-08T01:17:42.874Z,101168.88
2023-04-08T01:20:16.912Z,101173.78
2023-04-08T01:22:59.651Z,101172.19
2023-04-08T01:25:32.553Z,101164.47
2023-04-08T01:28:05.503Z,101166.16
2023-04-08T01:30:35.576Z,101176.44
2023-04-08T01:33:05.464Z,101183.22
2023-04-08T01:35:34.931Z,101182.13
2023-04-08T01:38:06.675Z,101174.72
2023-04-08T01:40:36.574Z,101168.19
2023-04-08T01:43:10.404Z,101169.91
2023-04-08T01:45:40.209Z,101163.09
2023-04-08T01:48:09.515Z,101164.31
2023-04-08T01:50:39.634Z,101171.06
2023-04-08T01:53:11.061Z,101163.28
2023-04-08T01:55:42.494Z,101168.00
2023-04-08T01:58:18.020Z,101158.66
2023-04-08T02:00:47.504Z,101157.66
2023-04-08T02:03:20.393Z,101157.28
2023-04-08T02:05:49.144Z,101149.97
2023-04-08T02:08:17.466Z,101158.25
2023-04-08T02:10:45.905Z,101156.66
2023-04-08T02:13:15.800Z,101157.59
2023-04-08T02:15:56.616Z,101152.97
2023-04-08T02:18:28.296Z,101151.94
2023-04-08T02:21:04.314Z,101157.09
2023-04-08T02:23:36.909Z,101152.88
2023-04-08T02:26:08.947Z,101163.84
2023-04-08T02:28:39.317Z,101159.59
2023-04-08T02:31:13.636Z,101155.78
2023-04-08T02:33:47.454Z,101152.41
2023-04-08T02:36:16.940Z,101164.72
2023-04-08T02:38:49.932Z,101162.06
2023-04-08T02:41:18.872Z,101157.84
2023-04-08T02:43:48.772Z,101159.97
2023-04-08T02:46:17.412Z,101161.69
2023-04-08T02:48:45.844Z,101160.94
2023-04-08T02:51:14.686Z,101118.16
2023-04-08T02:53:42.983Z,101153.72
2023-04-08T02:56:12.097Z,101151.69
2023-04-08T02:58:40.690Z,101155.84
2023-04-08T03:01:10.839Z,101160.41
2023-04-08T03:03:39.758Z,101159.56
2023-04-08T03:06:08.352Z,101149.75
2023-04-08T03:08:36.736Z,101149.22
2023-04-08T03:11:05.168Z,101155.81
2023-04-08T03:13:34.340Z,101155.91
2023-04-08T03:16:03.011Z,101156.75
2023-04-08T03:18:32.801Z,101154.09
2023-04-08T03:21:03.393Z,101159.63
2023-04-08T03:23:31.845Z,101161.06
2023-04-08T03:26:00.322Z,101159.78
2023-04-08T03:28:28.838Z,101153.19
2023-04-08T03:30:57.235Z,101164.00
2023-04-08T03:33:25.871Z,101167.91
2023-04-08T03:35:56.798Z,101147.59
2023-04-08T03:38:25.193Z,101164.03
2023-04-08T03:40:53.564Z,101164.13
2023-04-08T03:43:22.108Z,101161.06
2023-04-08T03:45:50.562Z,101156.06
2023-04-08T03:48:18.939Z,101160.50
2023-04-08T03:50:47.357Z,101155.41
2023-04-08T03:53:17.134Z,101152.84
2023-04-08T03:55:45.424Z,101158.50
2023-04-08T03:58:13.889Z,101168.53
2023-04-08T04:00:42.244Z,101165.47
2023-04-08T04:03:13.302Z,101164.78
2023-04-08T04:05:42.270Z,101167.53
2023-04-08T04:08:10.617Z,101168.50
2023-04-08T04:10:40.530Z,101166.97
2023-04-08T04:13:08.876Z,101165.66
2023-04-08T04:15:40.274Z,101146.31
2023-04-08T04:18:09.080Z,101163.13
2023-04-08T04:20:38.391Z,101168.53
2023-04-08T04:23:06.806Z,101164.63
2023-04-08T04:25:35.222Z,101163.78
2023-04-08T04:28:05.268Z,101159.25
2023-04-08T04:30:33.756Z,101161.06
2023-04-08T04:33:02.328Z,101165.41
2023-04-08T04:35:30.810Z,101157.47
2023-04-08T04:37:59.221Z,101149.41
2023-04-08T04:40:27.629Z,101155.66
2023-04-08T04:42:56.090Z,101158.22
2023-04-08T04:45:26.080Z,101156.78
2023-04-08T04:47:54.557Z,101160.03
2023-04-08T04:50:22.997Z,101160.22
2023-04-08T04:52:51.405Z,101158.22
2023-04-08T04:55:20.140Z,101150.75
2023-04-08T04:57:48.608Z,101156.03
2023-04-08T05:00:17.367Z,101163.03
2023-04-08T05:02:47.769Z,101162.84
2023-04-08T05:05:16.490Z,101163.22
2023-04-08T05:07:44.953Z,101162.00
2023-04-08T05:10:13.350Z,101165.00
2023-04-08T05:12:41.904Z,101165.38
2023-04-08T05:15:11.048Z,101177.94
2023-04-08T05:17:39.512Z,101173.75
2023-04-08T05:20:10.298Z,101186.16
2023-04-08T05:22:38.721Z,101186.94
2023-04-08T05:25:08.770Z,101194.56
2023-04-08T05:27:37.133Z,101204.44
2023-04-08T05:30:06.578Z,101205.34
2023-04-08T05:32:34.986Z,101200.81
2023-04-08T05:35:04.356Z,101206.66
2023-04-08T05:37:34.318Z,101205.75
2023-04-08T05:40:02.715Z,101203.84
2023-04-08T05:42:32.289Z,101194.59
2023-04-08T05:45:00.904Z,101131.00
2023-04-08T05:47:29.312Z,101197.88
2023-04-08T05:49:57.814Z,101202.13
2023-04-08T05:52:26.590Z,101213.81
2023-04-08T05:54:56.591Z,101210.19
2023-04-08T05:57:24.987Z,101196.81
2023-04-08T05:59:53.518Z,101211.47
2023-04-08T06:02:22.023Z,101207.34
2023-04-08T06:04:50.522Z,101211.16
2023-04-08T06:07:19.065Z,101207.00
2023-04-08T06:09:47.473Z,101210.09
2023-04-08T06:12:17.198Z,101214.81
2023-04-08T06:14:45.570Z,101224.00
2023-04-08T06:17:14.129Z,101225.31
2023-04-08T06:19:42.538Z,101222.81
2023-04-08T06:22:10.944Z,101228.25
2023-04-08T06:24:39.345Z,101234.22
2023-04-08T06:27:07.932Z,101237.75
2023-04-08T06:29:37.676Z,101244.28
2023-04-08T06:32:07.293Z,101238.38
2023-04-08T06:34:35.809Z,101240.56
2023-04-08T06:37:04.347Z,101230.59
2023-04-08T06:39:32.770Z,101239.56
2023-04-08T06:42:02.386Z,101231.94
2023-04-08T06:44:50.675Z,101233.03
2023-04-08T06:47:19.075Z,101234.66
2023-04-08T06:49:47.564Z,101233.25
2023-04-08T06:52:16.139Z,101233.94
2023-04-08T06:54:44.495Z,101230.97
2023-04-08T06:57:12.959Z,101228.25
2023-04-08T06:59:41.292Z,101219.34
2023-04-08T07:02:11.540Z,101222.28
2023-04-08T07:04:40.143Z,101223.31
2023-04-08T07:07:08.600Z,101231.41
2023-04-08T07:09:37.761Z,101225.97
2023-04-08T07:12:06.150Z,101230.25
2023-04-08T07:14:34.542Z,101226.88
2023-04-08T07:17:02.997Z,101228.00
2023-04-08T07:19:32.950Z,101227.47
2023-04-08T07:22:01.531Z,101225.72
2023-04-08T07:24:29.914Z,101222.41
2023-04-08T07:26:58.426Z,101225.03
2023-04-08T07:29:28.138Z,101228.94
2023-04-08T07:31:56.542Z,101239.66
2023-04-08T07:34:24.990Z,101243.44
2023-04-08T07:36:55.805Z,101237.88
2023-04-08T07:39:24.187Z,101242.09
2023-04-08T07:41:52.608Z,101231.38
2023-04-08T07:44:20.984Z,101242.28
2023-04-08T07:46:51.914Z,101242.13
2023-04-08T07:49:20.389Z,101244.66
2023-04-08T07:51:48.708Z,101237.75
2023-04-08T07:54:18.539Z,101240.28
2023-04-08T07:56:46.999Z,101245.97
2023-04-08T07:59:15.531Z,101251.84
2023-04-08T08:01:43.887Z,101247.09
2023-04-08T08:04:12.621Z,101244.78
2023-04-08T08:06:41.051Z,101252.19
2023-04-08T08:09:09.435Z,101253.78
2023-04-08T08:11:39.106Z,101257.09
2023-04-08T08:14:08.157Z,101260.13
2023-04-08T08:16:36.633Z,101267.59
2023-04-08T08:19:07.536Z,101255.19
2023-04-08T08:21:38.213Z,101255.72
2023-04-08T08:24:07.122Z,101260.63
2023-04-08T08:26:37.253Z,101257.47
2023-04-08T08:29:08.990Z,101260.19
2023-04-08T08:31:37.739Z,101267.13
2023-04-08T08:34:06.198Z,101267.00
2023-04-08T08:36:35.030Z,101273.94
2023-04-08T08:39:03.551Z,101269.41
2023-04-08T08:41:36.103Z,101266.56
2023-04-08T08:44:06.623Z,101276.41
2023-04-08T08:46:36.685Z,101280.63
2023-04-08T08:49:05.219Z,101277.75
2023-04-08T08:51:34.360Z,101282.50
2023-04-08T08:54:04.430Z,101274.06
2023-04-08T08:56:34.564Z,101269.00
2023-04-08T08:59:02.942Z,101275.94
2023-04-08T09:01:34.226Z,101276.41
2023-04-08T09:04:17.099Z,101282.16
2023-04-08T09:06:47.054Z,101275.41
2023-04-08T09:09:15.685Z,101278.28
2023-04-08T09:11:45.203Z,101283.47
2023-04-08T09:14:21.283Z,101270.50
2023-04-08T09:16:50.031Z,101271.34
2023-04-08T09:19:20.482Z,101273.88
2023-04-08T09:22:07.071Z,101237.41
2023-04-08T09:24:35.862Z,101262.41
2023-04-08T09:27:04.467Z,101263.56
2023-04-08T09:29:35.688Z,101269.97
2023-04-08T09:32:06.494Z,101263.41
2023-04-08T09:34:36.915Z,101259.34
2023-04-08T09:37:05.408Z,101255.47
2023-04-08T09:39:33.742Z,101256.28
2023-04-08T09:42:03.785Z,101257.31
2023-04-08T09:44:34.694Z,101264.25
2023-04-08T09:47:09.956Z,101258.50
2023-04-08T09:49:46.241Z,101260.47
2023-04-08T09:52:22.323Z,101267.53
2023-04-08T09:54:56.601Z,101237.66
2023-04-08T09:57:33.687Z,101256.16
2023-04-08T10:00:09.042Z,101256.97
2023-04-08T10:02:54.805Z,101264.44
2023-04-08T10:05:26.513Z,101256.91
2023-04-08T10:07:57.130Z,101251.13
2023-04-08T10:10:26.488Z,101248.09
2023-04-08T10:12:54.975Z,101241.19
2023-04-08T10:15:24.906Z,101248.38
2023-04-08T10:17:53.662Z,101241.28
2023-04-08T10:20:46.133Z,101253.97
2023-04-08T10:23:15.872Z,101248.56
2023-04-08T10:25:45.353Z,101248.13
2023-04-08T10:28:30.026Z,101253.09
2023-04-08T10:30:58.879Z,101246.31
2023-04-08T10:33:34.814Z,101240.03
2023-04-08T10:36:13.514Z,101247.72
2023-04-08T10:38:43.087Z,101245.41
2023-04-08T10:41:14.327Z,101251.13
2023-04-08T10:43:43.349Z,101242.78
2023-04-08T10:46:12.707Z,101239.22
2023-04-08T10:48:41.687Z,101238.38
2023-04-08T10:51:12.210Z,101244.78
2023-04-08T10:53:41.523Z,101201.38
2023-04-08T10:56:13.509Z,101241.41
2023-04-08T10:58:50.272Z,101234.06
2023-04-08T11:01:19.141Z,101240.78
2023-04-08T11:03:47.731Z,101241.06
2023-04-08T11:06:17.912Z,101236.66
2023-04-08T11:08:47.410Z,101239.00
2023-04-08T11:11:16.484Z,101242.84
2023-04-08T11:13:53.415Z,101235.19
2023-04-08T11:16:23.126Z,101242.34
2023-04-08T11:18:52.706Z,101233.06
2023-04-08T11:21:24.467Z,101228.53
2023-04-08T11:23:54.089Z,101227.88
2023-04-08T11:26:23.463Z,101220.19
2023-04-08T11:28:52.508Z,101230.47
2023-04-08T11:31:24.643Z,101223.63
2023-04-08T11:33:55.566Z,101219.03
2023-04-08T11:36:26.182Z,101218.28
2023-04-08T11:38:55.765Z,101209.75
2023-04-08T11:41:24.263Z,101207.94
2023-04-08T11:43:53.843Z,101208.41
2023-04-08T11:46:22.465Z,101203.44
2023-04-08T11:49:05.194Z,101166.31
2023-04-08T11:51:35.971Z,101192.78
2023-04-08T11:54:07.798Z,101179.44
2023-04-08T11:56:47.805Z,101195.69
2023-04-08T11:59:16.433Z,101179.19
2023-04-08T12:01:44.939Z,101182.16
2023-04-08T12:04:13.734Z,101180.75
2023-04-08T12:06:46.956Z,101172.66
2023-04-08T12:09:15.776Z,101178.31
2023-04-08T12:11:44.172Z,101179.34
2023-04-08T12:14:12.588Z,101174.38
2023-04-08T12:16:41.080Z,101171.91
2023-04-08T12:19:09.720Z,101162.47
2023-04-08T12:21:38.404Z,101168.59
2023-04-08T12:24:08.383Z,101172.19
2023-04-08T12:26:36.893Z,101164.06
2023-04-08T12:29:05.572Z,101169.09
2023-04-08T12:31:34.073Z,101170.78
2023-04-08T12:34:02.879Z,101159.28
2023-04-08T12:36:31.599Z,101166.47
2023-04-08T12:39:00.120Z,101167.53
2023-04-08T12:41:29.990Z,101157.19
2023-04-08T12:43:58.390Z,101158.47
2023-04-08T12:46:26.785Z,101157.69
2023-04-08T12:49:03.250Z,101145.81
2023-04-08T12:51:33.616Z,101121.44
2023-04-08T12:54:02.103Z,101153.72
2023-04-08T12:56:32.531Z,101150.78
2023-04-08T12:59:01.228Z,101150.78
2023-04-08T13:01:30.828Z,101147.03
2023-04-08T13:03:59.931Z,101141.59
2023-04-08T13:06:28.465Z,101125.50
2023-04-08T13:08:57.067Z,101129.50
2023-04-08T13:11:25.496Z,101130.72
2023-04-08T13:13:55.347Z,101124.69
2023-04-08T13:16:23.813Z,101124.03
2023-04-08T13:18:52.637Z,101125.53
2023-04-08T13:21:21.660Z,101123.03
2023-04-08T13:23:50.007Z,101118.22
2023-04-08T13:26:18.409Z,101120.13
2023-04-08T13:28:56.507Z,101117.59
2023-04-08T13:31:27.579Z,101121.16
2023-04-08T13:33:58.139Z,101114.47
2023-04-08T13:36:28.911Z,101115.72
2023-04-08T13:38:57.830Z,101103.19
2023-04-08T13:41:28.251Z,101101.94
2023-04-08T13:43:56.715Z,101108.41
2023-04-08T13:46:26.585Z,101102.94
2023-04-08T13:48:55.734Z,101098.56
2023-04-08T13:51:24.180Z,101083.50
2023-04-08T13:53:52.502Z,101099.00
2023-04-08T13:56:22.380Z,101096.47
2023-04-08T13:58:56.737Z,101101.94
2023-04-08T14:01:27.562Z,101091.03
2023-04-08T14:03:56.058Z,101089.38
2023-04-08T14:06:24.518Z,101092.72
2023-04-08T14:08:53.029Z,101091.84
2023-04-08T14:11:21.662Z,101086.84
2023-04-08T14:13:50.002Z,101086.03
2023-04-08T14:16:18.538Z,101084.78
2023-04-08T14:18:48.554Z,101080.13
2023-04-08T14:21:18.359Z,101081.38
2023-04-08T14:23:46.915Z,101077.66
2023-04-08T14:26:15.337Z,101079.94
2023-04-08T14:28:43.846Z,101077.22
2023-04-08T14:31:12.701Z,101070.75
2023-04-08T14:33:42.417Z,101075.78
2023-04-08T14:36:14.114Z,101080.13
2023-04-08T14:38:42.996Z,101070.94
2023-04-08T14:41:11.624Z,101066.53
2023-04-08T14:43:40.373Z,101074.47
2023-04-08T14:46:09.030Z,101067.19
2023-04-08T14:48:37.606Z,101069.06
2023-04-08T14:51:06.279Z,101065.72
2023-04-08T14:53:36.607Z,101062.13
2023-04-08T14:56:05.432Z,101062.38
2023-04-08T14:58:34.805Z,101065.94
2023-04-08T15:01:03.311Z,101062.75
2023-04-08T15:03:31.856Z,101050.19
2023-04-08T15:06:01.480Z,101042.91
2023-04-08T15:08:29.926Z,101052.31
2023-04-08T15:10:59.692Z,101064.03
2023-04-08T15:13:28.118Z,101055.25
2023-04-08T15:15:56.734Z,101053.31
2023-04-08T15:18:25.389Z,101048.72
2023-04-08T15:20:53.844Z,101054.16
2023-04-08T15:23:23.336Z,101055.88
2023-04-08T15:25:53.042Z,101060.06
2023-04-08T15:28:22.926Z,101054.63
2023-04-08T15:30:51.687Z,101048.34
2023-04-08T15:33:20.444Z,101050.38
2023-04-08T15:35:48.934Z,101043.69
2023-04-08T15:38:17.668Z,101044.09
2023-04-08T15:40:48.196Z,101049.72
2023-04-08T15:43:16.919Z,101048.00
2023-04-08T15:45:46.803Z,101047.56
2023-04-08T15:48:15.536Z,101041.88
2023-04-08T15:50:43.957Z,101042.28
2023-04-08T15:53:12.477Z,101034.94
2023-04-08T15:55:41.459Z,101024.69
2023-04-08T15:58:09.953Z,101047.28
2023-04-08T16:00:38.438Z,101048.59
2023-04-08T16:03:12.012Z,101054.13
2023-04-08T16:05:41.801Z,101052.06
2023-04-08T16:08:10.553Z,101062.16
2023-04-08T16:10:39.033Z,101050.03
2023-04-08T16:13:08.833Z,101047.72
2023-04-08T16:15:37.349Z,101046.03
2023-04-08T16:18:06.552Z,101048.34
2023-04-08T16:20:38.548Z,101057.25
2023-04-08T16:23:07.046Z,101055.16
2023-04-08T16:25:35.510Z,101052.44
2023-04-08T16:28:04.000Z,101057.44
2023-04-08T16:30:32.480Z,101060.94
2023-04-08T16:33:00.930Z,101068.22
2023-04-08T16:35:29.271Z,101065.09
2023-04-08T16:38:00.296Z,101069.19
2023-04-08T16:40:33.137Z,101067.91
2023-04-08T16:43:02.014Z,101072.66
2023-04-08T16:45:30.722Z,101070.47
2023-04-08T16:48:00.547Z,101067.53
2023-04-08T16:50:29.300Z,101067.94
2023-04-08T16:52:59.189Z,101061.81
2023-04-08T16:55:27.629Z,101079.34
2023-04-08T16:57:56.040Z,101079.94
2023-04-08T17:00:24.802Z,101079.47
2023-04-08T17:02:55.794Z,101091.69
2023-04-08T17:05:24.472Z,101099.09
2023-04-08T17:07:53.000Z,101103.41
2023-04-08T17:10:23.876Z,101080.59
2023-04-08T17:12:52.348Z,101113.38
2023-04-08T17:15:20.876Z,101110.41
2023-04-08T17:17:49.330Z,101110.53
2023-04-08T17:20:18.017Z,101114.47
2023-04-08T17:22:47.514Z,101112.50
2023-04-08T17:25:16.990Z,101114.50
2023-04-08T17:27:46.976Z,101119.66
2023-04-08T17:30:15.771Z,101106.97
2023-04-08T17:32:44.331Z,101126.41
2023-04-08T17:35:13.362Z,101129.66
2023-04-08T17:37:41.846Z,101110.56
2023-04-08T17:40:11.670Z,101127.66
2023-04-08T17:42:40.066Z,101133.81
2023-04-08T17:45:11.848Z,101135.19
2023-04-08T17:47:40.310Z,101132.50
2023-04-08T17:50:11.870Z,101132.03
2023-04-08T17:52:40.412Z,101140.41
2023-04-08T17:55:10.953Z,101145.94
2023-04-08T17:57:39.426Z,101158.34
2023-04-08T18:00:12.384Z,101025.97
2023-04-08T18:02:44.144Z,101158.44
2023-04-08T18:05:17.401Z,101170.88
2023-04-08T18:07:47.891Z,101175.69
2023-04-08T18:10:19.383Z,101180.13
2023-04-08T18:12:49.071Z,101178.66
2023-04-08T18:15:20.842Z,101175.84
2023-04-08T18:17:49.215Z,101187.41
2023-04-08T18:20:17.696Z,101189.53
2023-04-08T18:22:46.164Z,101196.97
2023-04-08T18:25:14.547Z,101204.16
2023-04-08T18:27:42.970Z,101210.66
2023-04-08T18:30:12.003Z,101210.31
2023-04-08T18:32:42.045Z,101219.25
2023-04-08T18:35:11.317Z,101221.66
2023-04-08T18:37:40.683Z,101224.34
2023-04-08T18:40:09.928Z,101226.19
2023-04-08T18:42:39.314Z,101235.16
2023-04-08T18:45:08.476Z,101230.88
2023-04-08T18:47:37.095Z,101240.28
2023-04-08T18:50:07.922Z,101244.31
2023-04-08T18:52:36.353Z,101242.19
2023-04-08T18:55:05.521Z,101246.41
2023-04-08T18:57:34.642Z,101247.84
2023-04-08T19:00:03.016Z,101255.53
2023-04-08T19:02:31.927Z,101258.97
2023-04-08T19:05:00.551Z,101258.50
2023-04-08T19:07:30.357Z,101255.78
2023-04-08T19:09:59.118Z,101247.56
2023-04-08T19:12:27.477Z,101265.09
2023-04-08T19:14:56.102Z,101278.69
2023-04-08T19:17:24.562Z,101276.31
2023-04-08T19:19:52.992Z,101282.75
2023-04-08T19:22:21.492Z,101288.50
2023-04-08T19:24:53.717Z,101287.41
2023-04-08T19:27:23.406Z,101298.66
2023-04-08T19:29:51.792Z,101294.47
2023-04-08T19:32:20.356Z,101301.31
2023-04-08T19:34:48.810Z,101304.31
2023-04-08T19:37:17.333Z,101303.53
2023-04-08T19:39:46.756Z,101315.25
2023-04-08T19:42:16.619Z,101316.94
2023-04-08T19:44:44.908Z,101322.72
2023-04-08T19:47:13.371Z,101320.63
2023-04-08T19:49:41.682Z,101321.47
2023-04-08T19:52:10.093Z,101330.25
2023-04-08T19:54:38.470Z,101328.13
2023-04-08T19:57:08.948Z,101319.50
2023-04-08T19:59:38.933Z,101315.72
2023-04-08T20:02:08.157Z,101334.88
2023-04-08T20:04:36.761Z,101333.72
2023-04-08T20:07:05.156Z,101341.50
2023-04-08T20:09:33.683Z,101338.53
2023-04-08T20:12:04.852Z,101341.06
2023-04-08T20:14:34.207Z,101346.09
2023-04-08T20:17:04.570Z,101349.19
2023-04-08T20:19:32.895Z,101348.09
2023-04-08T20:22:01.733Z,101349.88
2023-04-08T20:24:30.061Z,101351.25
2023-04-08T20:26:59.230Z,101349.19
2023-04-08T20:29:28.638Z,101341.94
2023-04-08T20:31:57.182Z,101349.47
2023-04-08T20:34:27.729Z,101351.97
2023-04-08T20:36:56.248Z,101354.91
2023-04-08T20:39:29.715Z,101347.69
2023-04-08T20:41:58.481Z,101349.97
2023-04-08T20:44:27.256Z,101351.97
2023-04-08T20:46:55.980Z,101358.34
2023-04-08T20:49:24.440Z,101355.25
2023-04-08T20:51:54.297Z,101354.81
2023-04-08T20:54:22.725Z,101354.06
2023-04-08T20:56:51.139Z,101346.78
2023-04-08T20:59:19.558Z,101357.44
2023-04-08T21:01:48.240Z,101352.47
2023-04-08T21:04:16.902Z,101356.47
2023-04-08T21:06:45.383Z,101346.78
2023-04-08T21:09:16.613Z,101355.16
2023-04-08T21:11:45.132Z,101358.94
2023-04-08T21:14:13.656Z,101354.34
2023-04-08T21:16:42.106Z,101351.72
2023-04-08T21:19:10.675Z,101359.25
2023-04-08T21:21:39.138Z,101350.75
2023-04-08T21:24:09.637Z,101352.81
2023-04-08T21:26:40.414Z,101359.88
2023-04-08T21:29:08.915Z,101354.56
2023-04-08T21:31:39.975Z,101355.69
2023-04-08T21:34:08.526Z,101358.72
2023-04-08T21:36:36.954Z,101360.78
2023-04-08T21:39:05.472Z,101346.94
2023-04-08T21:41:33.923Z,101368.69
2023-04-08T21:44:03.751Z,101370.88
2023-04-08T21:46:32.195Z,101368.44
2023-04-08T21:49:00.565Z,101364.78
2023-04-08T21:51:28.947Z,101370.22
2023-04-08T21:53:57.372Z,101366.47
2023-04-08T21:56:25.813Z,101366.22
2023-04-08T21:58:54.209Z,101366.78
2023-04-08T22:01:24.631Z,101364.72
2023-04-08T22:03:55.558Z,101360.97
2023-04-08T22:06:32.257Z,101362.78
2023-04-08T22:09:01.336Z,101366.75
2023-04-08T22:11:29.873Z,101371.47
2023-04-08T22:13:58.246Z,101370.84
2023-04-08T22:16:27.975Z,101366.06
2023-04-08T22:18:56.536Z,101369.34
2023-04-08T22:21:25.013Z,101364.34
2023-04-08T22:23:53.502Z,101365.88
2023-04-08T22:26:22.412Z,101363.19
2023-04-08T22:28:52.235Z,101362.03
2023-04-08T22:31:21.049Z,101368.22
2023-04-08T22:33:51.175Z,101370.47
2023-04-08T22:36:19.672Z,101366.97
2023-04-08T22:38:48.058Z,101370.38
2023-04-08T22:41:20.002Z,101365.78
2023-04-08T22:43:48.450Z,101368.16
2023-04-08T22:46:18.485Z,101371.84
2023-04-08T22:48:47.416Z,101370.13
2023-04-08T22:51:17.173Z,101381.44
2023-04-08T22:53:45.737Z,101337.75
2023-04-08T22:56:14.092Z,101373.81
2023-04-08T22:58:42.804Z,101367.75
2023-04-08T23:01:17.200Z,101374.25
2023-04-08T23:03:45.859Z,101377.22
2023-04-08T23:06:14.257Z,101382.97
2023-04-08T23:08:44.284Z,101375.41
2023-04-08T23:11:12.739Z,101376.38
2023-04-08T23:13:41.556Z,101379.06
2023-04-08T23:16:10.648Z,101375.66
2023-04-08T23:18:39.254Z,101379.38
2023-04-08T23:21:07.833Z,101377.56
2023-04-08T23:23:36.234Z,101381.72
2023-04-08T23:26:06.289Z,101379.16
2023-04-08T23:28:34.730Z,101380.75
2023-04-08T23:31:05.985Z,101380.66
2023-04-08T23:33:34.479Z,101385.25
2023-04-08T23:36:07.685Z,101395.41
2023-04-08T23:38:37.222Z,101388.19
2023-04-08T23:41:07.620Z,101390.84
2023-04-08T23:43:36.235Z,101386.50
2023-04-08T23:46:04.738Z,101390.97
2023-04-08T23:48:33.172Z,101381.06
2023-04-08T23:51:01.608Z,101382.66
2023-04-08T23:53:30.032Z,101377.88
2023-04-08T23:56:07.416Z,101380.84
2023-04-08T23:58:36.434Z,101384.75
